INFORMAÇÕES METEOROLÓGICAS
METAR FOR SOCA
ADDS - METARS form results

(1149 UTC 18 June 2018)
Data provider http://aviationweather.gov/adds/metars/
 
METAR text: SOCA 181130Z AUTO VRB02KT 9999 FEW006 25/25 Q1017 NOSIG
Conditions at: SOCA (CAYENNE/ROCHAMBE, GY) observed 1130 UTC 18 June 2018
Temperature: 25.0°C (77°F)
Dewpoint: 25.0°C (77°F) [RH = 100%]
Pressure (altimeter): 30.03 inches Hg (1017.0 mb)
Winds: variable direction winds at 2 MPH (2 knots; 1.0 m/s)
Visibility: 6 or more miles (10+ km)
Ceiling: at least 12,000 feet AGL
Clouds: few clouds at 600 feet AGL
Weather: no significant weather observed at this time

METAR text: SOCA 181100Z AUTO 00000KT 9999 FEW003 24/24 Q1016
Conditions at: SOCA (CAYENNE/ROCHAMBE, GY) observed 1100 UTC 18 June 2018
Temperature: 24.0°C (75°F)
Dewpoint: 24.0°C (75°F) [RH = 100%]
Pressure (altimeter): 30.00 inches Hg (1016.0 mb)
Winds: calm
Visibility: 6 or more miles (10+ km)
Ceiling: at least 12,000 feet AGL
Clouds: few clouds at 300 feet AGL
Weather: no significant weather observed at this time

Forecast for: SOCA (CAYENNE/ROCHAMBE, GY)
Text: TAF SOCA 181000Z 1812/1912 10008KT 9999 BKN026
Forecast period: 1200 to 2200 UTC 18 June 2018
Forecast type: FROM: standard forecast or significant change
Winds: from the E (100 degrees) at 9 MPH (8 knots; 4.2 m/s)
Visibility: 6 or more miles (10+ km)
Ceiling: 2600 feet AGL
Clouds: broken clouds at 2600 feet AGL
Weather: no significant weather forecast for this period
Text: PROB30
Forecast period: 1400 to 1800 UTC 18 June 2018
Forecast type: TEMPORARY: The following changes expected for less than half the time period
Visibility: 1.86 miles (2.99 km)
Clouds: few clouds at 1300 feet AGL
scattered clouds at 1500 feet AGL
Weather: SHRA  (rain showers)
Text: TEMPO 1814/1818 3000 SHRA FEW013CB SCT015TCU
Forecast period: 2200 UTC 18 June 2018 to 1200 UTC 19 June 2018
Forecast type: FROM: standard forecast or significant change
Winds: variable direction winds at 2 MPH (2 knots; 1.0 m/s)
Visibility: 6 or more miles (10+ km)
Clouds: few clouds at 2000 feet AGL
Weather: no significant weather forecast for this period

 MAPA DO AEROPORTO

 INFORMAÇÕES DA PISTA
Pista 08 Tamanho da pista 10486 ft Largura da pista 148 ft
Elevação da pista 18 ft Ranhura da pista 0 ft Proa da pista 65
Pista 26 Tamanho da pista 10486 ft Largura da pista 148 ft
Elevação da pista 25 ft Ranhura da pista 0 ft Proa da pista 245

 FREQUÊNCIAS DO AEROPORTO
Tipo APP Nome APP Frequência 119.9 MHZ
Tipo ATIS Nome ATIS Frequência 132.2 MHZ
Tipo TWR Nome TWR Frequência 118.1 MHZ

 AUXÍLIOS DE NAVEGAÇÃO PRÓXIMOS AO AEROPORTO
Tipo VOR-DME Nome Cayenne Frequência 115950 KHZ
Tipo NDB Nome Cayenne Frequência 327 KHZ



Powered by Mercosul Lnhas Aereas